Time;durP1;ratioP1;P1;durP2;ratioP2;P2;SDS_P1;SDS_P2;PMS_P1;PMS_P2;Temp;Humidity;BMP_temperature;BMP_pressure;BME280_temperature;BME280_humidity;BME280_pressure;Samples;Min_cycle;Max_cycle;Signal;HPM_P1;HPM_P2
2021/09/23 00:00:49;;;;;;;14.27;10.75;;;10.60;80.00;;;9.24;83.83;96850.50;4957416;28;20468;-65
2021/09/23 00:03:31;;;;;;;14.05;10.25;;;10.60;79.70;;;9.21;83.38;96841.16;4980561;28;20058;-65
2021/09/23 00:05:57;;;;;;;14.10;10.57;;;10.60;79.50;;;9.20;83.12;96836.88;4970988;28;20043;-65
2021/09/23 00:08:23;;;;;;;12.40;10.90;;;10.60;79.60;;;9.18;83.99;96836.22;4990852;28;20097;-65
2021/09/23 00:10:49;;;;;;;16.02;11.63;;;10.60;79.60;;;9.14;84.34;96840.16;4990337;28;20030;-65
2021/09/23 00:13:14;;;;;;;14.25;10.77;;;10.60;79.80;;;9.13;83.66;96835.09;4955136;28;20540;-65
2021/09/23 00:15:41;;;;;;;15.20;11.60;;;10.60;79.80;;;9.11;84.00;96823.94;4973545;28;20034;-65
2021/09/23 00:18:09;;;;;;;14.32;11.10;;;10.50;79.90;;;9.08;84.47;96819.81;4974518;28;20034;-65
2021/09/23 00:20:37;;;;;;;13.68;11.25;;;10.50;80.10;;;9.08;84.28;96817.19;4972482;28;20038;-65
2021/09/23 00:23:03;;;;;;;14.10;10.70;;;10.50;80.00;;;9.09;83.99;96815.41;4991766;28;20381;-65
2021/09/23 00:25:29;;;;;;;15.02;10.88;;;10.60;80.20;;;9.08;84.79;96814.56;4989243;28;20041;-65
2021/09/23 00:27:55;;;;;;;14.55;10.80;;;10.60;80.30;;;9.09;84.15;96802.28;4974567;28;20491;-65
2021/09/23 00:30:21;;;;;;;14.05;11.30;;;10.60;80.50;;;9.08;85.35;96798.84;4991345;28;20038;-65
2021/09/23 00:32:49;;;;;;;15.57;11.90;;;10.60;80.70;;;9.09;85.47;96807.53;4983710;28;20023;-64
2021/09/23 00:35:15;;;;;;;17.60;11.57;;;10.50;80.90;;;9.09;85.83;96807.53;4980306;28;20658;-66
2021/09/23 00:37:40;;;;;;;14.55;10.93;;;10.60;81.10;;;9.08;85.27;96798.00;4985016;28;20089;-65
2021/09/23 00:40:08;;;;;;;16.08;12.07;;;10.50;81.30;;;9.08;85.93;96796.22;4973386;28;20085;-65
2021/09/23 00:42:36;;;;;;;18.40;11.50;;;10.60;81.40;;;9.09;86.10;96800.47;4989662;28;20108;-66
2021/09/23 00:45:02;;;;;;;15.25;11.85;;;10.60;81.40;;;9.09;85.37;96797.84;4971161;28;20415;-66
2021/09/23 00:47:27;;;;;;;15.40;10.65;;;10.60;81.30;;;9.11;85.53;96797.69;4987251;28;20038;-65
2021/09/23 00:49:53;;;;;;;13.13;10.27;;;10.60;81.30;;;9.11;86.00;96808.19;4975537;28;20035;-65
2021/09/23 00:52:19;;;;;;;11.93;9.50;;;10.60;81.10;;;9.08;85.49;96804.09;4968643;28;20109;-66
2021/09/23 00:54:48;;;;;;;13.48;9.75;;;10.50;80.90;;;9.08;85.32;96805.88;4951342;28;20125;-65
2021/09/23 00:57:17;;;;;;;13.05;9.30;;;10.50;80.70;;;9.05;85.77;96807.03;4974145;28;20093;-65
2021/09/23 00:59:44;;;;;;;12.80;9.50;;;10.50;80.40;;;9.03;85.64;96814.22;4956835;28;20140;-66
2021/09/23 01:02:10;;;;;;;11.05;9.38;;;10.40;80.30;;;9.02;85.84;96809.97;4989275;28;20410;-65
2021/09/23 01:04:36;;;;;;;10.32;8.45;;;10.40;80.20;;;8.97;85.16;96812.25;4972508;28;20038;-65
2021/09/23 01:07:02;;;;;;;11.25;8.95;;;10.50;80.00;;;8.98;84.75;96807.81;4985711;28;20038;-65
2021/09/23 01:09:28;;;;;;;11.50;9.38;;;10.40;79.90;;;8.94;84.66;96809.13;4989158;28;20058;-66
2021/09/23 01:11:53;;;;;;;10.13;8.38;;;10.40;79.50;;;8.92;84.35;96803.22;4987767;28;20038;-65
2021/09/23 01:14:19;;;;;;;10.07;7.95;;;10.40;79.60;;;8.85;84.25;96798.63;4981271;28;20043;-65
2021/09/23 01:16:46;;;;;;;10.77;9.05;;;10.30;79.50;;;8.82;84.94;96798.09;4968546;28;20429;-65
2021/09/23 01:19:11;;;;;;;11.10;8.75;;;10.20;79.70;;;8.78;84.54;96796.78;4988935;28;20030;-65
2021/09/23 01:21:37;;;;;;;10.60;9.35;;;10.10;79.90;;;8.73;84.96;96804.31;4988046;28;20046;-66
2021/09/23 01:24:03;;;;;;;13.48;10.15;;;10.10;80.00;;;8.69;84.97;96797.75;4963906;28;20043;-65
2021/09/23 01:26:30;;;;;;;12.27;9.38;;;10.10;80.10;;;8.65;84.70;96794.66;4986035;28;20125;-66
2021/09/23 01:28:56;;;;;;;12.30;10.68;;;10.10;79.90;;;8.62;84.61;96794.16;4988867;28;20080;-66
2021/09/23 01:31:22;;;;;;;12.52;10.35;;;10.10;80.10;;;8.59;84.51;96798.69;4953275;28;20046;-65
2021/09/23 01:33:48;;;;;;;12.57;10.55;;;10.10;80.20;;;8.55;85.25;96802.63;4952662;28;20039;-65
2021/09/23 01:36:13;;;;;;;14.88;10.20;;;10.00;80.40;;;8.53;84.99;96804.59;4965368;28;20494;-65
2021/09/23 01:38:39;;;;;;;13.40;10.30;;;10.00;80.40;;;8.52;85.07;96796.88;5001422;28;20055;-65
2021/09/23 01:41:05;;;;;;;13.23;10.45;;;10.00;80.30;;;8.50;84.77;96806.72;4982952;28;20410;-65
2021/09/23 01:43:31;;;;;;;11.23;10.13;;;10.00;80.20;;;8.46;85.33;96797.53;4987581;28;20041;-66
2021/09/23 01:45:56;;;;;;;12.82;10.43;;;10.00;80.50;;;8.42;85.96;96783.91;4971933;28;20047;-66
2021/09/23 01:48:22;;;;;;;13.55;10.88;;;9.90;80.90;;;8.43;85.26;96796.03;4985692;28;20026;-65
2021/09/23 01:50:48;;;;;;;14.55;10.90;;;9.90;80.90;;;8.43;85.41;96798.66;4988158;28;20429;-65
2021/09/23 01:53:14;;;;;;;12.35;11.05;;;10.00;80.90;;;8.42;85.82;96797.03;4983869;28;20124;-65
2021/09/23 01:55:39;;;;;;;13.65;11.02;;;9.90;81.00;;;8.40;86.11;96771.94;4972479;28;20069;-65
2021/09/23 01:58:05;;;;;;;13.85;10.90;;;9.90;80.90;;;8.40;86.07;96778.00;4972755;28;20046;-65
2021/09/23 02:00:31;;;;;;;14.60;11.38;;;9.90;80.90;;;8.40;85.85;96778.00;4988504;28;20081;-65
2021/09/23 02:02:57;;;;;;;12.85;10.60;;;9.90;80.80;;;8.40;85.72;96772.78;4987728;28;20456;-66
2021/09/23 02:05:23;;;;;;;13.10;10.45;;;9.90;80.60;;;8.40;85.54;96772.78;4988835;28;20037;-66
2021/09/23 02:07:48;;;;;;;13.23;10.10;;;9.90;80.50;;;8.41;85.43;96774.41;4989708;28;20121;-65
2021/09/23 02:10:14;;;;;;;12.00;10.60;;;9.90;80.50;;;8.39;86.08;96780.81;4968950;28;20038;-65
2021/09/23 02:12:40;;;;;;;11.98;10.07;;;9.90;80.60;;;8.39;85.22;96775.56;4977746;28;20098;-65
2021/09/23 02:15:07;;;;;;;12.55;10.15;;;9.90;80.50;;;8.39;85.54;96775.56;4968415;28;20046;-65
2021/09/23 02:17:32;;;;;;;11.68;9.80;;;9.90;80.40;;;8.37;85.29;96773.06;4972285;28;20038;-65
2021/09/23 02:19:58;;;;;;;11.30;10.07;;;9.80;80.20;;;8.34;85.21;96770.75;4971894;28;20104;-65
2021/09/23 02:22:24;;;;;;;11.10;9.75;;;9.80;80.00;;;8.30;85.16;96772.03;4971823;28;20030;-66
2021/09/23 02:24:51;;;;;;;11.43;10.20;;;9.80;79.80;;;8.27;84.63;96773.16;4972287;28;20069;-65
2021/09/23 02:27:17;;;;;;;13.57;9.85;;;9.70;79.90;;;8.26;85.06;96766.28;4981186;28;20530;-65
2021/09/23 02:29:42;;;;;;;10.73;9.63;;;9.70;79.70;;;8.22;84.36;96766.78;4965975;28;20027;-66
2021/09/23 02:32:08;;;;;;;13.55;10.05;;;9.60;79.40;;;8.16;84.20;96759.53;4966943;28;20059;-65
2021/09/23 02:34:34;;;;;;;10.90;9.13;;;9.60;79.40;;;8.11;84.43;96759.16;4971087;28;20046;-65
2021/09/23 02:37:00;;;;;;;8.65;7.75;;;9.50;79.20;;;8.06;84.02;96754.41;4985920;28;20440;-66
2021/09/23 02:39:26;;;;;;;8.55;6.65;;;9.50;78.80;;;8.02;83.70;96757.50;4971812;28;20041;-67
2021/09/23 02:41:51;;;;;;;6.57;5.90;;;9.50;78.60;;;7.96;83.80;96749.31;4973430;28;20474;-66
2021/09/23 02:44:17;;;;;;;8.25;6.30;;;9.40;78.60;;;7.91;83.50;96748.94;4975976;28;20562;-65
2021/09/23 02:46:43;;;;;;;9.15;6.72;;;9.40;78.60;;;7.87;83.24;96747.59;4975891;28;20034;-66
2021/09/23 02:49:09;;;;;;;8.80;6.78;;;9.30;78.70;;;7.87;83.47;96746.78;4972700;28;20379;-65
2021/09/23 02:51:35;;;;;;;8.98;7.50;;;9.30;78.70;;;7.83;83.48;96743.66;4986656;28;20572;-66
2021/09/23 02:54:00;;;;;;;8.65;6.75;;;9.30;78.70;;;7.80;83.71;96743.97;4972555;28;20035;-66
2021/09/23 02:56:27;;;;;;;8.57;6.97;;;9.30;78.90;;;7.76;83.90;96742.66;4985288;28;20042;-65
2021/09/23 02:58:52;;;;;;;8.90;7.50;;;9.20;79.10;;;7.72;84.13;96730.84;4972184;28;20043;-65
2021/09/23 03:01:19;;;;;;;10.02;7.70;;;9.20;79.40;;;7.70;84.08;96722.31;4967693;28;20041;-66
2021/09/23 03:03:45;;;;;;;10.65;8.35;;;9.20;79.60;;;7.68;83.88;96724.25;4974636;28;20035;-66
2021/09/23 03:06:11;;;;;;;11.07;9.00;;;9.20;79.90;;;7.68;84.63;96725.06;4972427;28;20041;-66
2021/09/23 03:08:37;;;;;;;10.73;9.13;;;9.20;80.40;;;7.68;84.84;96722.44;4961810;28;20027;-65
2021/09/23 03:11:03;;;;;;;12.30;9.25;;;9.20;80.70;;;7.66;85.52;96720.97;4965543;28;20441;-65
2021/09/23 03:13:28;;;;;;;12.07;9.50;;;9.20;81.10;;;7.66;85.27;96726.22;4971968;28;20042;-66
2021/09/23 03:15:54;;;;;;;11.68;9.10;;;9.20;81.10;;;7.65;85.69;96717.53;4991542;28;20788;-66
2021/09/23 03:18:20;;;;;;;10.10;8.88;;;9.20;81.10;;;7.65;85.97;96711.47;4988008;28;20069;-66
2021/09/23 03:20:46;;;;;;;11.80;8.93;;;9.20;81.30;;;7.66;86.03;96715.72;4987024;28;20077;-65
2021/09/23 03:23:12;;;;;;;11.10;8.82;;;9.20;81.00;;;7.66;85.82;96708.69;4972847;28;20057;-65
2021/09/23 03:25:39;;;;;;;24.52;18.25;;;9.20;80.90;;;7.66;86.06;96710.50;4992106;28;20084;-65
2021/09/23 03:28:04;;;;;;;27.95;23.73;;;9.30;81.30;;;7.68;87.12;96709.34;4975488;28;20038;-66
2021/09/23 03:30:30;;;;;;;28.02;21.13;;;9.30;81.70;;;7.71;86.73;96703.03;4971986;28;20057;-66
2021/09/23 03:32:56;;;;;;;21.70;17.02;;;9.40;81.80;;;7.74;86.82;96702.69;4972166;28;20034;-66
2021/09/23 03:35:22;;;;;;;30.92;27.00;;;9.40;81.60;;;7.76;86.83;96705.97;4975176;28;20030;-65
2021/09/23 03:37:49;;;;;;;29.02;24.60;;;9.40;81.50;;;7.76;86.91;96695.50;4968833;28;20047;-66
2021/09/23 03:40:15;;;;;;;16.45;14.15;;;9.40;81.70;;;7.79;87.16;96695.19;4970897;28;20114;-65
2021/09/23 03:42:40;;;;;;;12.50;11.20;;;9.40;81.40;;;7.78;86.97;96683.06;4990548;28;20084;-65
2021/09/23 03:45:07;;;;;;;11.15;9.80;;;9.50;81.30;;;7.80;86.80;96682.91;4974806;28;20030;-65
2021/09/23 03:47:33;;;;;;;10.60;9.43;;;9.40;81.10;;;7.77;87.03;96681.44;4967499;28;20042;-64
2021/09/23 03:49:59;;;;;;;11.38;9.43;;;9.40;81.40;;;7.77;86.80;96676.19;4955932;28;20038;-66
2021/09/23 03:52:25;;;;;;;10.52;9.07;;;9.40;81.50;;;7.77;86.80;96670.13;4967864;28;20081;-64
2021/09/23 03:54:51;;;;;;;10.85;9.75;;;9.40;81.60;;;7.79;87.08;96676.03;4973276;28;20057;-67
2021/09/23 03:57:17;;;;;;;12.25;9.75;;;9.30;81.50;;;7.77;87.18;96670.97;4969873;28;20117;-66
2021/09/23 03:59:42;;;;;;;11.23;9.48;;;9.40;81.60;;;7.76;86.99;96664.09;4985959;28;20039;-64
2021/09/23 04:02:08;;;;;;;14.32;10.05;;;9.30;81.60;;;7.77;87.12;96668.34;4989471;28;20069;-67
2021/09/23 04:04:34;;;;;;;11.50;10.25;;;9.40;81.70;;;7.77;87.38;96665.72;4990407;28;20112;-66
2021/09/23 04:07:00;;;;;;;16.83;12.93;;;9.40;81.60;;;7.78;87.61;96663.91;4969576;28;20055;-67
2021/09/23 04:09:25;;;;;;;31.70;26.95;;;9.40;81.50;;;7.78;87.71;96654.28;4968186;28;20038;-66
2021/09/23 04:11:51;;;;;;;36.85;32.65;;;9.40;81.60;;;7.79;87.64;96655.91;4966327;28;20438;-67
2021/09/23 04:14:17;;;;;;;21.67;19.38;;;9.50;81.70;;;7.78;87.88;96650.81;4990377;28;20085;-65
2021/09/23 04:16:42;;;;;;;16.50;11.27;;;9.40;81.60;;;7.79;87.31;96653.28;4990544;28;20108;-66
2021/09/23 04:19:08;;;;;;;13.02;10.90;;;9.40;81.40;;;7.77;86.97;96654.44;4990093;28;20355;-66
2021/09/23 04:21:34;;;;;;;14.10;10.20;;;9.40;81.40;;;7.76;87.15;96647.56;4986127;28;20049;-66
2021/09/23 04:24:00;;;;;;;11.77;9.82;;;9.40;81.20;;;7.73;87.04;96642.63;4977196;28;20022;-66
2021/09/23 04:26:25;;;;;;;12.43;9.60;;;9.30;81.10;;;7.67;86.94;96631.78;4970483;28;20047;-66
2021/09/23 04:28:51;;;;;;;11.98;9.70;;;9.10;81.30;;;7.62;87.46;96631.44;4973660;28;20077;-66
2021/09/23 04:31:17;;;;;;;11.05;8.85;;;9.10;81.30;;;7.61;87.28;96634.22;4989794;28;20089;-67
2021/09/23 04:33:43;;;;;;;10.43;8.98;;;9.10;81.30;;;7.56;87.13;96631.25;4990767;28;20023;-66
2021/09/23 04:36:09;;;;;;;10.30;9.20;;;9.10;81.40;;;7.54;86.99;96622.75;4989850;28;20034;-67
2021/09/23 04:38:34;;;;;;;11.23;9.18;;;9.10;81.50;;;7.53;86.74;96615.88;4954928;28;20069;-67
2021/09/23 04:41:00;;;;;;;13.25;9.13;;;9.10;81.30;;;7.48;87.29;96618.16;4954558;28;20056;-66
2021/09/23 04:43:26;;;;;;;11.40;9.52;;;9.00;81.60;;;7.44;87.52;96622.03;4970347;28;20238;-66
2021/09/23 04:45:51;;;;;;;12.80;9.90;;;9.00;81.60;;;7.44;87.14;96629.88;4974764;28;20570;-67
2021/09/23 04:48:17;;;;;;;13.57;9.80;;;9.00;81.50;;;7.43;87.42;96615.16;4989428;28;20036;-67
2021/09/23 04:50:43;;;;;;;11.40;10.20;;;9.10;81.40;;;7.42;87.54;96618.75;4973626;28;20061;-66
2021/09/23 04:53:09;;;;;;;13.45;11.00;;;9.00;81.40;;;7.42;86.75;96608.28;4970107;28;20065;-66
2021/09/23 04:55:34;;;;;;;13.32;9.90;;;9.00;81.30;;;7.38;87.07;96608.59;4971320;28;20031;-66
2021/09/23 04:58:00;;;;;;;16.95;14.38;;;9.00;81.30;;;7.37;86.80;96606.97;4986326;28;20410;-66
2021/09/23 05:00:26;;;;;;;43.10;31.50;;;9.00;81.30;;;7.37;87.43;96606.97;4972293;28;20669;-67
2021/09/23 05:02:52;;;;;;;28.55;25.00;;;9.00;81.50;;;7.37;86.96;96596.50;4953581;28;20034;-67
2021/09/23 05:05:18;;;;;;;27.92;20.80;;;9.00;81.60;;;7.34;87.63;96593.38;4972086;28;20413;-67
2021/09/23 05:07:43;;;;;;;13.57;10.77;;;9.00;81.30;;;7.30;87.46;96600.72;4988684;28;20114;-69
2021/09/23 05:10:09;;;;;;;22.48;17.45;;;8.90;81.10;;;7.29;87.31;96613.97;4989575;28;20532;-68
2021/09/23 05:12:35;;;;;;;33.40;24.88;;;8.90;81.30;;;7.26;86.97;96599.41;4989270;28;20030;-69
2021/09/23 05:15:01;;;;;;;17.23;13.85;;;8.90;81.40;;;7.29;87.24;96612.16;4989484;28;20030;-67
2021/09/23 05:17:27;;;;;;;11.40;10.20;;;8.90;81.30;;;7.29;87.24;96609.56;4973493;28;20030;-65
2021/09/23 05:19:52;;;;;;;12.30;9.07;;;8.90;81.20;;;7.25;87.01;96603.00;4971384;28;20287;-67
2021/09/23 05:22:22;;;;;;;11.55;9.70;;;8.90;81.30;;;7.23;87.29;96599.69;4988482;28;20046;-68
2021/09/23 05:24:50;;;;;;;13.25;9.60;;;8.90;81.30;;;7.24;86.98;96590.88;4989596;28;20486;-68
2021/09/23 05:27:16;;;;;;;14.25;9.75;;;8.90;81.10;;;7.25;87.50;96592.53;4973535;28;20039;-68
2021/09/23 05:29:43;;;;;;;14.15;10.80;;;8.90;81.00;;;7.25;87.18;96597.75;4956560;28;20031;-68
2021/09/23 05:32:09;;;;;;;17.35;11.25;;;8.90;81.20;;;7.25;86.75;96587.28;4990117;28;20038;-66
2021/09/23 05:34:34;;;;;;;15.70;11.68;;;8.90;81.30;;;7.25;86.92;96587.28;4988834;28;20035;-66
2021/09/23 05:37:00;;;;;;;15.63;11.38;;;8.90;81.30;;;7.30;87.69;96587.63;4989484;28;20038;-66
2021/09/23 05:39:26;;;;;;;15.85;11.48;;;9.00;81.30;;;7.31;87.68;96586.66;4972817;28;20125;-67
2021/09/23 05:41:52;;;;;;;17.13;11.23;;;9.00;81.30;;;7.34;87.33;96575.88;4988502;28;20042;-66
2021/09/23 05:44:23;;;;;;;17.77;11.80;;;9.10;81.50;;;7.37;87.93;96565.09;4973236;28;20042;-67
2021/09/23 05:46:52;;;;;;;15.75;12.02;;;9.10;81.50;;;7.40;88.31;96568.38;4969481;28;20042;-66
2021/09/23 05:49:19;;;;;;;13.68;11.65;;;9.10;81.50;;;7.43;88.12;96557.56;4988941;28;20038;-67
2021/09/23 05:51:45;;;;;;;16.38;12.18;;;9.20;81.60;;;7.48;88.18;96568.41;4972257;28;20076;-66
2021/09/23 05:54:11;;;;;;;16.15;11.45;;;9.20;81.60;;;7.54;88.08;96565.16;4990668;28;20106;-67
2021/09/23 05:56:37;;;;;;;14.25;11.32;;;9.30;81.60;;;7.58;88.54;96574.31;4989021;28;20454;-67
2021/09/23 05:59:02;;;;;;;14.20;11.13;;;9.40;81.60;;;7.61;88.18;96576.63;4988686;28;20037;-66
2021/09/23 06:01:28;;;;;;;14.18;11.45;;;9.40;81.40;;;7.66;88.18;96569.09;4968625;28;20094;-67
2021/09/23 06:03:54;;;;;;;17.52;11.95;;;9.50;81.30;;;7.71;88.54;96579.13;4972515;28;20083;-66
2021/09/23 06:06:20;;;;;;;14.50;11.32;;;9.60;81.20;;;7.77;88.11;96578.47;4988964;28;20042;-66
2021/09/23 06:08:46;;;;;;;19.13;11.60;;;9.60;81.20;;;7.81;88.43;96572.75;4972775;28;20107;-66
2021/09/23 06:11:11;;;;;;;15.50;12.10;;;9.60;81.20;;;7.85;88.53;96568.00;4988759;28;20033;-67
2021/09/23 06:13:37;;;;;;;13.77;11.35;;;9.70;81.10;;;7.89;88.98;96570.16;4972321;28;20027;-67
2021/09/23 06:16:03;;;;;;;17.05;11.88;;;9.70;81.20;;;7.95;88.51;96566.09;4973396;28;20043;-66
2021/09/23 06:18:29;;;;;;;14.85;12.10;;;9.80;81.20;;;8.01;88.63;96562.00;4965101;28;20383;-67
2021/09/23 06:20:55;;;;;;;16.15;11.73;;;9.90;81.20;;;8.06;88.55;96570.19;4994975;28;20034;-66
2021/09/23 06:23:21;;;;;;;13.00;11.68;;;9.90;81.30;;;8.12;88.80;96569.53;4995486;28;20034;-67
2021/09/23 06:25:46;;;;;;;15.32;12.43;;;10.00;81.20;;;8.15;88.27;96559.56;4977777;28;20621;-68
2021/09/23 06:28:12;;;;;;;14.48;12.45;;;10.10;80.60;;;8.25;89.10;96556.78;4995502;28;20041;-68
2021/09/23 06:30:38;;;;;;;14.15;11.60;;;10.20;80.80;;;8.33;88.96;96561.19;4995135;28;20093;-68
2021/09/23 06:33:04;;;;;;;14.48;11.40;;;10.20;80.80;;;8.43;88.40;96562.72;4990140;28;20124;-66
2021/09/23 06:35:30;;;;;;;15.05;11.88;;;10.40;80.70;;;8.53;88.42;96558.13;4994744;28;20038;-67
2021/09/23 06:37:56;;;;;;;14.18;11.27;;;10.60;80.40;;;8.64;88.48;96558.78;4978879;28;20026;-66
2021/09/23 06:40:22;;;;;;;12.77;10.95;;;10.70;80.10;;;8.75;89.12;96553.19;4962506;28;20414;-66
2021/09/23 06:42:48;;;;;;;15.75;10.65;;;10.80;79.80;;;8.87;88.97;96547.44;4962405;28;20034;-67
2021/09/23 06:45:13;;;;;;;15.38;11.35;;;10.90;79.10;;;8.96;87.49;96548.22;4979069;28;20026;-68
2021/09/23 06:47:39;;;;;;;11.57;10.07;;;11.10;78.70;;;9.10;88.80;96550.16;4992950;28;20035;-67
2021/09/23 06:50:06;;;;;;;14.82;12.00;;;11.30;78.80;;;9.26;87.90;96548.47;4994722;28;20042;-67
2021/09/23 06:52:31;;;;;;;22.85;17.23;;;11.50;77.20;;;9.38;87.75;96544.50;4994848;28;20065;-67
2021/09/23 06:54:58;;;;;;;14.40;12.07;;;11.70;77.30;;;9.54;87.22;96541.81;4994977;28;20088;-67
2021/09/23 06:57:24;;;;;;;14.52;11.43;;;11.90;76.20;;;9.69;86.06;96539.25;4995083;28;20125;-67
2021/09/23 06:59:50;;;;;;;14.02;10.23;;;12.10;76.00;;;9.87;85.69;96546.88;4994370;28;20530;-68
2021/09/23 07:02:15;;;;;;;10.45;9.10;;;12.30;74.60;;;10.06;86.15;96543.78;4994079;28;20038;-67
2021/09/23 07:04:41;;;;;;;11.23;9.05;;;12.60;74.30;;;10.26;84.84;96552.88;4978867;28;20026;-67
2021/09/23 07:07:07;;;;;;;10.73;8.82;;;12.80;72.70;;;10.37;83.92;96549.00;4994958;28;20050;-67
2021/09/23 07:09:33;;;;;;;13.68;8.40;;;12.90;72.00;;;10.55;84.36;96541.63;4977537;28;20096;-68
2021/09/23 07:12:00;;;;;;;16.75;13.20;;;13.10;71.90;;;10.76;83.61;96532.25;4994694;28;20041;-67
2021/09/23 07:14:26;;;;;;;12.77;10.68;;;13.40;70.80;;;10.96;82.61;96530.72;4994668;28;20060;-69
2021/09/23 07:16:52;;;;;;;10.65;8.95;;;13.60;69.30;;;11.12;81.89;96512.13;4967276;28;20042;-74
2021/09/23 07:19:18;;;;;;;8.40;7.50;;;13.70;69.60;;;11.33;81.15;96516.66;4955281;28;20038;-66
2021/09/23 07:21:44;;;;;;;9.48;7.65;;;14.00;68.90;;;11.52;81.24;96515.25;4970891;28;20643;-67
2021/09/23 07:24:09;;;;;;;11.45;7.72;;;14.20;68.00;;;11.61;80.61;96517.63;4987912;28;20517;-65
2021/09/23 07:26:35;;;;;;;9.20;7.70;;;14.30;68.50;;;11.87;80.79;96516.31;4994013;28;20058;-67
2021/09/23 07:29:01;;;;;;;8.55;7.65;;;14.90;66.90;;;12.10;79.95;96510.84;4964900;28;20093;-68
2021/09/23 07:31:26;;;;;;;9.48;8.00;;;15.20;65.90;;;12.33;79.44;96513.31;4987564;28;20133;-67
2021/09/23 07:33:52;;;;;;;9.07;7.35;;;15.40;63.80;;;12.48;78.48;96503.50;4990576;28;20105;-74
2021/09/23 07:36:19;;;;;;;12.38;7.78;;;15.90;63.90;;;12.79;78.89;96517.13;4986043;28;20129;-68
2021/09/23 07:38:44;;;;;;;9.18;7.60;;;16.30;62.20;;;13.05;77.63;96510.38;4971301;28;20125;-66
2021/09/23 07:41:10;;;;;;;8.35;7.25;;;16.60;61.90;;;13.22;78.06;96509.09;4962068;28;20121;-68
2021/09/23 07:43:36;;;;;;;9.65;7.80;;;16.80;60.80;;;13.46;76.71;96513.91;4974032;28;20038;-67
2021/09/23 07:46:02;;;;;;;11.02;8.35;;;17.10;59.00;;;13.68;76.12;96511.13;4971301;28;20034;-66
2021/09/23 07:48:28;;;;;;;11.05;7.28;;;17.40;59.00;;;13.91;75.51;96511.63;4976026;28;20034;-66
2021/09/23 07:50:54;;;;;;;7.95;7.15;;;17.70;57.80;;;14.10;75.79;96510.03;4990485;28;20042;-68
2021/09/23 07:53:20;;;;;;;9.95;7.75;;;17.90;56.90;;;14.33;74.76;96504.38;4987881;28;20039;-69
2021/09/23 07:55:47;;;;;;;10.55;7.72;;;18.20;56.10;;;14.54;74.52;96495.47;4970524;28;20023;-67
2021/09/23 07:58:13;;;;;;;9.55;7.15;;;18.40;56.40;;;14.79;72.81;96501.75;4970345;28;20034;-70
2021/09/23 08:00:38;;;;;;;9.15;7.22;;;18.70;55.70;;;15.07;73.24;96498.03;4973537;28;20031;-65
2021/09/23 08:03:04;;;;;;;9.00;7.40;;;19.10;55.20;;;15.35;73.23;96503.06;4988142;28;20030;-66
2021/09/23 08:05:30;;;;;;;8.02;6.60;;;19.40;54.20;;;15.64;72.72;96491.97;4989613;28;20410;-67
2021/09/23 08:08:01;;;;;;;8.73;6.75;;;19.70;53.20;;;15.88;70.52;96477.16;4973955;28;20050;-73
2021/09/23 08:10:26;;;;;;;9.02;7.57;;;19.90;53.00;;;16.14;70.57;96486.81;4958438;28;20117;-66
2021/09/23 08:12:52;;;;;;;9.20;7.22;;;20.00;50.70;;;16.30;69.59;96481.00;4974515;28;20456;-69
2021/09/23 08:15:18;;;;;;;7.72;6.85;;;20.10;50.70;;;16.52;69.57;96479.59;4991814;28;20505;-69
2021/09/23 08:17:44;;;;;;;7.40;6.18;;;20.40;51.00;;;16.75;68.82;96475.56;4953638;28;20042;-70
2021/09/23 08:20:10;;;;;;;6.97;6.20;;;20.60;50.60;;;16.96;67.96;96472.47;4973573;28;20053;-65
2021/09/23 08:22:36;;;;;;;9.25;6.68;;;20.80;50.40;;;17.17;67.48;96468.56;4987045;28;20031;-70
2021/09/23 08:25:04;;;;;;;7.97;6.75;;;20.90;49.60;;;17.38;66.14;96477.94;4962480;28;20150;-68
2021/09/23 08:27:30;;;;;;;7.45;6.20;;;21.20;49.20;;;17.64;67.11;96474.97;4974540;28;20063;-68
2021/09/23 08:29:56;;;;;;;9.73;6.43;;;21.60;48.40;;;17.90;65.41;96475.72;4990208;28;20162;-72
2021/09/23 08:32:21;;;;;;;7.55;6.28;;;21.90;47.70;;;18.19;65.17;96474.88;4983797;28;20457;-72
2021/09/23 08:34:47;;;;;;;9.55;6.55;;;22.30;46.60;;;18.46;64.13;96474.47;4974295;28;20034;-66
2021/09/23 08:37:14;;;;;;;8.82;6.15;;;22.40;46.40;;;18.63;64.27;96475.47;4970303;28;20031;-70
2021/09/23 08:39:40;;;;;;;7.88;5.68;;;22.60;46.40;;;18.90;62.96;96483.81;4969255;28;20034;-68
2021/09/23 08:42:05;;;;;;;7.38;5.68;;;22.90;45.00;;;19.19;62.83;96479.38;4960356;28;20555;-67
2021/09/23 08:44:32;;;;;;;9.93;6.00;;;23.20;45.00;;;19.49;62.47;96476.56;4973815;28;20030;-72
2021/09/23 08:46:57;;;;;;;6.22;5.53;;;23.40;43.30;;;19.67;61.99;96476.41;4970124;28;20537;-72
2021/09/23 08:49:23;;;;;;;8.07;5.72;;;23.60;43.80;;;19.94;61.18;96474.00;4966318;28;20038;-71
2021/09/23 08:51:49;;;;;;;7.20;5.55;;;23.80;42.40;;;20.23;59.49;96474.78;4989283;28;20034;-67
2021/09/23 08:54:17;;;;;;;6.07;5.43;;;24.10;42.10;;;20.52;59.51;96466.75;4991293;28;20560;-71
2021/09/23 08:56:44;;;;;;;7.38;5.10;;;24.50;41.20;;;20.79;59.33;96463.19;4989515;28;20034;-74
2021/09/23 08:59:10;;;;;;;5.57;4.78;;;24.60;41.20;;;21.04;58.35;96462.72;4989668;28;20065;-70
2021/09/23 09:01:48;;;;;;;5.60;5.00;;;24.70;39.80;;;21.29;52.82;96451.63;4988379;28;20035;-67
2021/09/23 09:04:14;;;;;;;6.72;4.85;;;24.90;39.80;;;21.48;56.20;96453.97;4989507;28;20493;-72
2021/09/23 09:07:00;;;;;;;5.10;4.18;;;24.90;39.30;;;21.80;49.96;96444.19;4989870;28;20058;-72
2021/09/23 09:09:26;;;;;;;5.63;4.28;;;25.30;38.20;;;22.07;54.58;96444.22;4938452;28;20033;-66
2021/09/23 09:11:53;;;;;;;4.40;3.70;;;25.60;37.40;;;22.38;52.66;96442.63;4976608;28;20042;-66
2021/09/23 09:14:29;;;;;;;5.97;4.18;;;25.90;36.60;;;22.75;48.29;96442.66;4959863;28;20039;-67
2021/09/23 09:17:06;;;;;;;5.60;3.33;;;26.20;36.30;;;23.03;47.07;96441.53;4980455;28;20037;-67
2021/09/23 09:19:54;;;;;;;6.38;3.38;;;26.50;34.80;;;23.19;45.22;96443.25;4988035;28;20049;-67
2021/09/23 09:22:22;;;;;;;5.20;3.80;;;26.50;34.40;;;23.41;48.16;96442.28;4988208;28;20042;-67
2021/09/23 09:25:09;;;;;;;5.85;3.38;;;26.70;35.00;;;23.61;48.53;96439.72;4989157;28;20050;-68
2021/09/23 09:27:40;;;;;;;5.05;3.17;;;27.10;33.80;;;23.84;45.46;96433.06;4987651;28;20031;-68
2021/09/23 09:30:21;;;;;;;4.90;3.17;;;27.40;34.10;;;24.08;43.08;96431.50;4969570;28;20042;-68
2021/09/23 09:32:57;;;;;;;8.05;3.95;;;27.80;32.80;;;24.31;43.26;96427.53;4971666;28;20035;-66
2021/09/23 09:35:26;;;;;;;5.05;3.42;;;28.40;32.10;;;24.51;45.10;96434.81;4973482;28;20034;-67
2021/09/23 09:37:54;;;;;;;4.35;3.20;;;28.90;30.90;;;24.75;44.39;96432.38;4983622;28;20394;-67
2021/09/23 09:40:24;;;;;;;4.53;3.03;;;29.50;30.00;;;24.97;42.34;96429.38;4971549;28;20442;-65
2021/09/23 09:42:51;;;;;;;8.82;3.20;;;30.10;29.50;;;25.00;44.42;96437.75;4972142;28;20022;-68
2021/09/23 09:45:21;;;;;;;4.55;3.15;;;30.10;28.80;;;25.24;42.59;96419.09;4972384;28;20038;-65
2021/09/23 09:47:52;;;;;;;3.10;2.57;;;30.80;28.90;;;25.62;44.73;96416.81;4960704;28;20387;-66
2021/09/23 09:50:37;;;;;;;6.45;2.90;;;31.80;27.90;;;26.18;39.66;96409.22;4953753;28;20397;-68
2021/09/23 09:53:08;;;;;;;5.13;2.75;;;32.80;26.40;;;26.76;40.48;96401.22;4992898;28;20042;-68
2021/09/23 09:55:43;;;;;;;5.30;3.10;;;33.60;25.60;;;27.42;41.67;96394.34;4987500;28;20169;-69
2021/09/23 09:58:09;;;;;;;3.25;2.45;;;34.50;23.60;;;28.02;43.09;96390.03;4971374;28;20045;-67
2021/09/23 10:00:35;;;;;;;3.35;2.60;;;35.10;22.90;;;28.63;41.44;96389.09;4985618;28;20038;-66
2021/09/23 10:03:01;;;;;;;4.15;2.40;;;36.00;22.10;;;29.15;40.81;96375.44;4982931;28;20050;-72
2021/09/23 10:05:27;;;;;;;4.13;2.78;;;36.80;21.40;;;29.73;39.90;96388.38;4974211;28;20506;-70
2021/09/23 10:07:54;;;;;;;5.03;2.88;;;37.50;21.20;;;30.29;37.92;96382.50;4977640;28;20042;-70
2021/09/23 10:10:28;;;;;;;3.67;2.55;;;38.40;20.40;;;30.76;32.40;96380.28;4980296;28;20042;-70
2021/09/23 10:12:56;;;;;;;4.05;2.33;;;38.70;19.10;;;31.21;34.03;96383.72;4989288;28;20513;-70
2021/09/23 10:15:22;;;;;;;3.80;2.60;;;38.90;19.30;;;31.56;35.96;96376.47;4988141;28;20088;-69
2021/09/23 10:17:49;;;;;;;4.00;2.60;;;39.50;18.30;;;31.91;34.53;96373.81;4984804;28;20034;-67